• Join FlightAware (Why Join?)
  • Login
  • US Flag 
03:03PM EDT


 

Airport Tracker/Info


-or-


 

Live Flight TrackerFlight Track Log ✈ EJA831 ✈ 26-Apr-2013 ✈ KLEX - KRST

Flight Track Log - Related Links

Times and Time Zones

All times are in EDT time to prevent confusion due to time zone crossing. See the EJA831 flight status page for this flight to view local times or setup timezone preferences in your user account.

Time Position Orientation Groundspeed Altitude Reporting Facility
EDT Latitude Longitude Course Direction KTS MPH feet Rate Location/Type
08:25AM 38.0614 -84.5819 293° West 163 188 4,200  Level Indianapolis Center
08:26AM 38.1064 -84.6064 337° Northwest 236 272 7,900 3,180 Climbing Indianapolis Center
08:27AM 38.0753 -84.6956 246° West 278 320 10,800 3,000 Climbing Indianapolis Center
08:28AM 38.1100 -84.7708 300° West 262 302 14,100 3,540 Climbing Indianapolis Center
08:29AM 38.1606 -84.8422 312° West 273 314 18,100 3,060 Climbing Indianapolis Center
08:30AM 37.8709 -84.9294 293° West  Level FlightAware Approximate
08:30AM 38.2228 -84.9333 311° West 292 336 20,400  Level Indianapolis Center
08:31AM 38.2794 -85.0189 310° West 313 360 22,900 2,460 Climbing Indianapolis Center
08:32AM 38.3389 -85.1072 311° West 324 373 25,500 2,400 Climbing Indianapolis Center
08:33AM 38.3944 -85.1928 310° West 316 364 27,900 2,220 Climbing Indianapolis Center
08:34AM 38.4533 -85.2828 310° West 312 359 30,100 2,040 Climbing Indianapolis Center
08:35AM 38.5103 -85.3675 311° West 313 360 32,100 1,740 Climbing Indianapolis Center
08:36AM 38.5661 -85.4531 310° West 313 360 33,700 1,500 Climbing Indianapolis Center
08:37AM 38.6233 -85.5400 310° West 319 367 35,200 1,320 Climbing Indianapolis Center
08:38AM 38.6794 -85.6283 309° West 321 369 36,500 1,380 Climbing Indianapolis Center
08:39AM 38.7364 -85.7153 310° West 319 367 38,100 1,380 Climbing Indianapolis Center
08:40AM 38.7997 -85.8133 310° West 308 354 39,400 900 Climbing Indianapolis Center
08:41AM 38.8561 -85.9006 310° West 311 358 40,000 240 Climbing Indianapolis Center
08:42AM 38.9164 -85.9928 310° West 327 376 40,000  Level Indianapolis Center
08:43AM 38.9789 -86.0900 310° West 343 395 40,000  Level Indianapolis Center
08:44AM 39.0408 -86.1867 310° West 348 400 40,000  Level Indianapolis Center
08:45AM 39.1106 -86.2753 315° West 350 403 40,000  Level Indianapolis Center
08:46AM 39.1808 -86.3628 316° Northwest 350 403 40,000  Level Indianapolis Center
08:47AM 39.2517 -86.4511 316° Northwest 350 403 40,000  Level Indianapolis Center
08:48AM 39.3217 -86.5389 316° Northwest 348 400 40,000  Level Indianapolis Center
08:49AM 39.3917 -86.6275 316° Northwest 349 402 40,000  Level Indianapolis Center
08:50AM 39.4733 -86.7314 316° Northwest 349 402 40,000  Level Indianapolis Center
08:51AM 39.5442 -86.8192 316° Northwest 349 402 40,000  Level Indianapolis Center
08:52AM 39.6139 -86.9092 315° West 348 400 40,000  Level Indianapolis Center
08:53AM 39.6850 -86.9992 316° Northwest 352 405 40,000  Level Indianapolis Center
08:54AM 39.7561 -87.0889 316° Northwest 353 406 40,000  Level Indianapolis Center
08:55AM 39.8278 -87.1797 316° Northwest 356 410 40,000  Level Indianapolis Center
08:56AM 39.8981 -87.2728 315° West 357 411 40,000  Level Indianapolis Center
08:57AM 39.9697 -87.3636 316° Northwest 357 411 40,000  Level Indianapolis Center
08:58AM 40.0417 -87.4564 315° West 360 414 40,000  Level Indianapolis Center
08:59AM 40.1117 -87.5483 315° West 357 411 40,000  Level Indianapolis Center
09:00AM 40.1953 -87.6572 315° West 360 414 40,000  Level Indianapolis Center
09:02AM 40.2667 -87.7497 315° West 359 413 40,000  Level Indianapolis Center
09:03AM 40.3369 -87.8419 315° West 357 411 40,000  Level Indianapolis Center
09:04AM 40.4064 -87.9339 315° West 354 407 40,000  Level Indianapolis Center
09:05AM 40.4764 -88.0253 315° West 352 405 40,000  Level Indianapolis Center
09:06AM 40.5472 -88.1197 315° West 354 407 40,000  Level Chicago Center
09:07AM 40.6289 -88.2297 314° West 351 404 40,000  Level Chicago Center
09:08AM 40.6967 -88.3197 315° West 348 400 40,000  Level Chicago Center
09:09AM 40.7644 -88.4114 314° West 348 400 40,000  Level Chicago Center
09:10AM 40.8467 -88.4828 327° Northwest 353 406 40,000  Level Chicago Center
09:11AM 40.9308 -88.5536 328° Northwest 357 411 40,000  Level Chicago Center
09:12AM 41.0139 -88.6231 328° Northwest 354 407 40,000  Level Chicago Center
09:13AM 41.0989 -88.6911 329° Northwest 355 409 40,000  Level Chicago Center
09:14AM 41.1992 -88.7783 327° Northwest 357 411 40,000  Level Chicago Center
09:15AM 41.2839 -88.8481 328° Northwest 358 412 40,000  Level Chicago Center
09:16AM 41.3683 -88.9192 328° Northwest 358 412 40,000  Level Chicago Center
09:17AM 41.4544 -88.9875 329° Northwest 361 415 40,000  Level Chicago Center
09:18AM 41.5372 -89.0606 327° Northwest 358 412 40,000  Level Chicago Center
09:19AM 41.5953 -89.1614 308° West 347 399 40,000  Level Chicago Center
09:20AM 41.6608 -89.2836 306° West 340 391 40,000  Level Chicago Center
09:21AM 41.7150 -89.3853 306° West 336 387 40,000  Level Chicago Center
09:22AM 41.7694 -89.4881 305° West 338 389 40,000  Level Chicago Center
09:23AM 41.8219 -89.5892 305° West 332 382 40,000  Level Chicago Center
09:24AM 41.8758 -89.6917 305° West 338 389 40,000  Level Chicago Center
09:25AM 41.9300 -89.7953 305° West 340 391 40,000  Level Chicago Center
09:26AM 41.9944 -89.9181 305° West 343 395 40,000 -540 Level Chicago Center
09:27AM 42.0511 -90.0256 305° West 342 394 38,900 -1,140 Descending Chicago Center
09:28AM 42.1053 -90.1333 304° West 350 403 37,700 -1,260 Descending Chicago Center
09:29AM 42.1600 -90.2389 305° West 347 399 36,400 -1,260 Descending Chicago Center
09:30AM 42.2144 -90.3419 306° West 342 394 35,100 -1,260 Descending Chicago Center
09:31AM 42.2667 -90.4442 305° West 335 386 33,800 -1,320 Descending Chicago Center
09:33AM 42.3153 -90.5419 304° West 322 371 32,500 -1,440 Descending Chicago Center
09:34AM 42.3772 -90.6606 305° West 322 371 30,900 -1,500 Descending Chicago Center
09:35AM 42.4450 -90.7597 313° West 363 418 29,400 -1,440 Descending Chicago Center
09:36AM 42.5242 -90.8492 320° Northwest 373 429 28,000 -1,260 Descending Chicago Center
09:37AM 42.6014 -90.9394 319° Northwest 371 427 26,800 -1,200 Descending Chicago Center
09:38AM 42.6786 -91.0289 320° Northwest 370 426 25,600 -1,260 Descending Chicago Center
09:39AM 42.7692 -91.1350 319° Northwest 363 418 24,200 -1,260 Descending Chicago Center
09:40AM 42.8431 -91.2211 319° Northwest 357 411 23,000 -1,260 Descending Chicago Center
09:41AM 42.9133 -91.3039 319° Northwest 342 394 21,700 -1,380 Descending Chicago Center
09:41AM 42.9414 -91.3364 320° Northwest 345 397 21,100 -1,380 Descending Minneapolis Center
09:42AM 43.0117 -91.4192 319° Northwest 341 392 19,700 -1,500 Descending Minneapolis Center
09:43AM 43.0944 -91.5172 319° Northwest 335 386 18,100 -1,380 Descending Minneapolis Center
09:44AM 43.1622 -91.5978 319° Northwest 329 379 16,900 -1,320 Descending Minneapolis Center
09:45AM 43.2297 -91.6786 319° Northwest 327 376 15,500 -1,500 Descending Minneapolis Center
09:46AM 43.3089 -91.7722 319° Northwest 328 377 13,800 -1,560 Descending Minneapolis Center
09:47AM 43.3742 -91.8508 319° Northwest 319 367 12,400 -1,380 Descending Minneapolis Center
09:48AM 43.4400 -91.9294 319° Northwest 317 365 11,000 -1,200 Descending Minneapolis Center
09:49AM 43.5131 -92.0142 320° Northwest 319 367 10,000 -540 Descending Minneapolis Center
09:50AM 43.5814 -92.0900 321° Northwest 321 369 10,000  Level Minneapolis Center
09:51AM 43.6572 -92.1675 324° Northwest 316 364 10,000 -360 Level Minneapolis Center
09:52AM 43.7225 -92.2322 324° Northwest 287 330 9,300 -1,320 Descending Minneapolis Center
09:54AM 43.7886 -92.2978 324° Northwest 274 315 7,400 -1,860 Descending Minneapolis Center
09:55AM 43.8461 -92.3556 324° Northwest 262 302 5,600 -1,500 Descending Minneapolis Center
09:56AM 43.8961 -92.4033 325° Northwest 207 238 4,300 -1,140 Descending Minneapolis Center
09:57AM 43.9294 -92.4319 328° Northwest 137 158 3,300 -840 Descending Minneapolis Center
09:58AM 43.9456 -92.4617 307° West 97 112 2,600 -660 Descending Minneapolis Center
09:59AM 43.9331 -92.4811 228° Southwest 74 85 2,000 -720 Descending Minneapolis Center
10:00AM 43.9100 -92.4969 206° Southwest 84 97 1,200 -840 Descending Minneapolis Center
10:02AM 43.9083 -92.5000 305° West  Level Estimated